createdAt,value
2023-01-23T00:00:13.977Z,-0.38
2023-01-23T00:01:14.471Z,-0.54
2023-01-23T00:02:14.378Z,-0.55
2023-01-23T00:03:14.431Z,-0.52
2023-01-23T00:04:14.647Z,-0.51
2023-01-23T00:05:14.134Z,-0.54
2023-01-23T00:06:14.115Z,-0.51
2023-01-23T00:07:14.196Z,-0.52
2023-01-23T00:08:14.331Z,-0.54
2023-01-23T00:09:14.453Z,-0.48
2023-01-23T00:10:14.394Z,-0.61
2023-01-23T00:11:14.018Z,-0.54
2023-01-23T00:12:43.461Z,-0.48
2023-01-23T00:13:13.698Z,-0.55
2023-01-23T00:14:13.937Z,-0.55
2023-01-23T00:15:13.919Z,-0.61
2023-01-23T00:16:14.075Z,-0.59
2023-01-23T00:17:13.886Z,-0.59
2023-01-23T00:18:13.595Z,-0.54
2023-01-23T00:19:13.851Z,-0.55
2023-01-23T00:20:13.554Z,-0.64
2023-01-23T00:21:14.044Z,-0.67
2023-01-23T00:22:16.623Z,-0.67
2023-01-23T00:23:19.983Z,-0.69
2023-01-23T00:24:13.848Z,-0.66
2023-01-23T00:25:14.130Z,-0.55
2023-01-23T00:26:14.080Z,-0.59
2023-01-23T00:27:13.923Z,-0.72
2023-01-23T00:28:13.401Z,-0.62
2023-01-23T00:29:13.649Z,-0.64
2023-01-23T00:30:13.616Z,-0.66
2023-01-23T00:31:13.973Z,-0.73
2023-01-23T00:32:13.833Z,-0.64
2023-01-23T00:33:13.800Z,-0.69
2023-01-23T00:34:13.532Z,-0.52
2023-01-23T00:35:13.277Z,-0.51
2023-01-23T00:36:13.521Z,-0.59
2023-01-23T00:37:13.462Z,-0.59
2023-01-23T00:38:13.407Z,-0.49
2023-01-23T00:39:13.421Z,-0.51
2023-01-23T00:40:13.560Z,-0.48
2023-01-23T00:41:13.786Z,-0.51
2023-01-23T00:42:13.508Z,-0.51
2023-01-23T00:43:13.340Z,-0.52
2023-01-23T00:44:13.354Z,-0.46
2023-01-23T00:45:13.618Z,-0.51
2023-01-23T00:46:13.761Z,-0.51
2023-01-23T00:47:13.005Z,-0.38
2023-01-23T00:48:13.239Z,-0.43
2023-01-23T00:49:13.234Z,-0.41
2023-01-23T00:50:13.455Z,-0.51
2023-01-23T00:51:13.694Z,-0.54
2023-01-23T00:52:13.151Z,-0.48
2023-01-23T00:53:13.400Z,-0.48
2023-01-23T00:54:13.394Z,-0.43
2023-01-23T00:55:13.360Z,-0.41
2023-01-23T00:56:13.218Z,-0.41
2023-01-23T00:57:13.436Z,-0.46
2023-01-23T00:58:13.430Z,-0.51
2023-01-23T00:59:13.272Z,-0.46
2023-01-23T01:00:13.251Z,-0.52
2023-01-23T01:01:12.989Z,-0.52
2023-01-23T01:02:12.971Z,-0.46
2023-01-23T01:03:13.199Z,-0.51
2023-01-23T01:04:12.931Z,-0.46
2023-01-23T01:05:12.898Z,-0.52
2023-01-23T01:06:12.872Z,-0.51
2023-01-23T01:07:13.104Z,-0.45
2023-01-23T01:08:12.588Z,-0.4
2023-01-23T01:09:13.073Z,-0.43
2023-01-23T01:10:13.060Z,-0.37
2023-01-23T01:11:12.776Z,-0.48
2023-01-23T01:12:13.150Z,-0.4
2023-01-23T01:13:13.116Z,-0.43
2023-01-23T01:14:13.089Z,-0.43
2023-01-23T01:15:12.697Z,-0.46
2023-01-23T01:16:13.201Z,-0.4
2023-01-23T01:17:12.396Z,-0.37
2023-01-23T01:18:12.658Z,-0.43
2023-01-23T01:19:12.949Z,-0.36
2023-01-23T01:20:12.601Z,-0.41
2023-01-23T01:21:12.370Z,-0.41
2023-01-23T01:22:12.812Z,-0.46
2023-01-23T01:23:12.531Z,-0.36
2023-01-23T01:24:12.508Z,-0.34
2023-01-23T01:25:12.744Z,-0.36
2023-01-23T01:26:12.755Z,-0.4
2023-01-23T01:27:12.708Z,-0.37
2023-01-23T01:28:12.886Z,-0.38
2023-01-23T01:29:12.789Z,-0.34
2023-01-23T01:30:12.773Z,-0.38
2023-01-23T01:31:12.941Z,-0.34
2023-01-23T01:32:12.377Z,-0.34
2023-01-23T01:33:12.584Z,-0.28
2023-01-23T01:34:12.333Z,-0.28
2023-01-23T01:35:12.633Z,-0.36
2023-01-23T01:36:12.257Z,-0.33
2023-01-23T01:37:13.129Z,-0.23
2023-01-23T01:38:13.355Z,-0.36
2023-01-23T01:39:13.356Z,-0.37
2023-01-23T01:40:13.345Z,-0.31
2023-01-23T01:41:13.082Z,-0.36
2023-01-23T01:42:13.280Z,-0.38
2023-01-23T01:43:13.276Z,-0.36
2023-01-23T01:44:13.351Z,-0.34
2023-01-23T01:45:13.088Z,-0.4
2023-01-23T01:46:13.454Z,-0.38
2023-01-23T01:47:13.186Z,-0.38
2023-01-23T01:48:12.890Z,-0.37
2023-01-23T01:49:12.902Z,-0.41
2023-01-23T01:50:14.562Z,-0.38
2023-01-23T01:51:13.185Z,-0.38
2023-01-23T01:52:12.829Z,-0.4
2023-01-23T01:53:13.048Z,-0.45
2023-01-23T01:54:13.028Z,-0.4
2023-01-23T01:55:12.748Z,-0.34
2023-01-23T01:56:12.491Z,-0.36
2023-01-23T01:57:12.962Z,-0.4
2023-01-23T01:58:12.690Z,-0.36
2023-01-23T01:59:12.672Z,-0.27
2023-01-23T02:00:12.792Z,-0.38
2023-01-23T02:01:13.086Z,-0.37
2023-01-23T02:02:12.989Z,-0.38
2023-01-23T02:03:12.588Z,-0.31
2023-01-23T02:04:12.819Z,-0.43
2023-01-23T02:05:12.586Z,-0.46
2023-01-23T02:06:12.539Z,-0.4
2023-01-23T02:07:12.522Z,-0.37
2023-01-23T02:08:12.777Z,-0.52
2023-01-23T02:09:12.725Z,-0.45
2023-01-23T02:10:12.446Z,-0.48
2023-01-23T02:11:12.680Z,-0.4
2023-01-23T02:12:12.551Z,-0.4
2023-01-23T02:13:12.401Z,-0.4
2023-01-23T02:14:12.638Z,-0.34
2023-01-23T02:15:12.345Z,-0.4
2023-01-23T02:16:12.886Z,-0.38
2023-01-23T02:17:12.429Z,-0.43
2023-01-23T02:18:12.494Z,-0.43
2023-01-23T02:19:12.035Z,-0.43
2023-01-23T02:20:12.497Z,-0.41
2023-01-23T02:21:12.512Z,-0.38
2023-01-23T02:22:12.198Z,-0.38
2023-01-23T02:23:12.180Z,-0.45
2023-01-23T02:24:11.914Z,-0.33
2023-01-23T02:25:12.154Z,-0.34
2023-01-23T02:26:12.131Z,-0.33
2023-01-23T02:27:12.106Z,-0.34
2023-01-23T02:28:12.074Z,-0.33
2023-01-23T02:29:12.326Z,-0.37
2023-01-23T02:30:12.319Z,-0.28
2023-01-23T02:31:12.690Z,-0.34
2023-01-23T02:32:12.259Z,-0.31
2023-01-23T02:33:12.354Z,-0.41
2023-01-23T02:34:12.091Z,-0.4
2023-01-23T02:35:11.940Z,-0.41
2023-01-23T02:36:12.173Z,-0.38
2023-01-23T02:37:11.896Z,-0.41
2023-01-23T02:38:11.877Z,-0.38
2023-01-23T02:39:12.155Z,-0.4
2023-01-23T02:40:12.088Z,-0.48
2023-01-23T02:41:12.072Z,-0.38
2023-01-23T02:42:12.057Z,-0.4
2023-01-23T02:43:12.038Z,-0.33
2023-01-23T02:44:11.767Z,-0.43
2023-01-23T02:45:11.725Z,-0.38
2023-01-23T02:46:12.182Z,-0.36
2023-01-23T02:47:11.431Z,-0.37
2023-01-23T02:48:11.796Z,-0.37
2023-01-23T02:49:12.042Z,-0.34
2023-01-23T02:50:12.092Z,-0.31
2023-01-23T02:51:12.147Z,-0.41
2023-01-23T02:52:11.877Z,-0.43
2023-01-23T02:53:11.315Z,-0.37
2023-01-23T02:54:11.801Z,-0.38
2023-01-23T02:55:11.271Z,-0.38
2023-01-23T02:56:11.754Z,-0.37
2023-01-23T02:57:11.505Z,-0.31
2023-01-23T02:58:11.460Z,-0.38
2023-01-23T02:59:11.712Z,-0.34
2023-01-23T03:00:11.696Z,-0.38
2023-01-23T03:01:11.553Z,-0.33
2023-01-23T03:02:11.835Z,-0.33
2023-01-23T03:03:11.109Z,-0.4
2023-01-23T03:04:11.735Z,-0.4
2023-01-23T03:05:11.796Z,-0.36
2023-01-23T03:06:11.416Z,-0.4
2023-01-23T03:07:11.540Z,-0.37
2023-01-23T03:08:11.519Z,-0.33
2023-01-23T03:09:11.240Z,-0.4
2023-01-23T03:10:11.475Z,-0.45
2023-01-23T03:11:11.207Z,-0.38
2023-01-23T03:12:11.455Z,-0.4
2023-01-23T03:13:11.425Z,-0.36
2023-01-23T03:14:11.408Z,-0.37
2023-01-23T03:15:11.377Z,-0.45
2023-01-23T03:16:11.251Z,-0.45
2023-01-23T03:17:11.190Z,-0.45
2023-01-23T03:18:11.078Z,-0.46
2023-01-23T03:19:11.623Z,-0.34
2023-01-23T03:20:11.410Z,-0.41
2023-01-23T03:21:11.372Z,-0.41
2023-01-23T03:22:11.348Z,-0.37
2023-01-23T03:23:11.220Z,-0.38
2023-01-23T03:24:10.939Z,-0.41
2023-01-23T03:25:10.911Z,-0.37
2023-01-23T03:26:10.889Z,-0.43
2023-01-23T03:27:10.893Z,-0.43
2023-01-23T03:28:11.112Z,-0.41
2023-01-23T03:29:11.091Z,-0.38
2023-01-23T03:30:11.085Z,-0.49
2023-01-23T03:31:10.949Z,-0.46
2023-01-23T03:32:11.044Z,-0.46
2023-01-23T03:33:11.004Z,-0.45
2023-01-23T03:50:12.789Z,-0.46
2023-01-23T03:51:12.375Z,-0.55
2023-01-23T03:52:12.190Z,-0.56
2023-01-23T03:53:12.170Z,-0.7
2023-01-23T03:54:12.397Z,-0.62
2023-01-23T03:55:12.125Z,-0.62
2023-01-23T03:56:12.099Z,-0.55
2023-01-23T03:57:12.344Z,-0.67
2023-01-23T03:58:12.050Z,-0.61
2023-01-23T03:59:12.291Z,-0.67
2023-01-23T04:00:12.025Z,-0.69
2023-01-23T04:01:12.317Z,-0.67
2023-01-23T04:02:11.972Z,-0.69
2023-01-23T04:03:12.149Z,-0.7
2023-01-23T04:04:12.185Z,-0.7
2023-01-23T04:05:11.926Z,-0.69
2023-01-23T04:06:12.511Z,-0.66
2023-01-23T04:07:12.135Z,-0.61
2023-01-23T04:08:11.615Z,-0.62
2023-01-23T04:09:12.077Z,-0.67
2023-01-23T04:10:15.345Z,-0.66
2023-01-23T04:11:11.804Z,-0.69
2023-01-23T04:12:11.759Z,-0.69
2023-01-23T04:13:11.753Z,-0.67
2023-01-23T04:14:11.986Z,-0.73
2023-01-23T04:15:11.746Z,-0.61
2023-01-23T04:16:11.765Z,-0.64
2023-01-23T04:17:11.928Z,-0.67
2023-01-23T04:18:11.647Z,-0.66
2023-01-23T04:19:11.627Z,-0.69
2023-01-23T04:20:11.876Z,-0.67
2023-01-23T04:21:11.578Z,-0.69
2023-01-23T04:22:12.167Z,-0.69
2023-01-23T04:23:11.808Z,-0.66
2023-01-23T04:24:11.505Z,-0.72
2023-01-23T04:25:11.768Z,-0.74
2023-01-23T04:26:11.471Z,-0.84
2023-01-23T04:27:11.743Z,-0.74
2023-01-23T04:28:11.465Z,-0.82
2023-01-23T04:29:11.185Z,-0.92
2023-01-23T04:30:11.164Z,-0.84
2023-01-23T04:31:12.087Z,-0.89
2023-01-23T04:32:11.642Z,-0.89
2023-01-23T04:33:11.104Z,-0.96
2023-01-23T04:34:11.602Z,-1.01
2023-01-23T04:35:11.564Z,-1.09
2023-01-23T04:36:11.319Z,-1.25
2023-01-23T04:37:11.535Z,-1.22
2023-01-23T04:38:11.859Z,-1.31
2023-01-23T04:39:11.488Z,-1.37
2023-01-23T04:40:11.212Z,-1.42
2023-01-23T04:41:11.193Z,-1.56
2023-01-23T04:42:10.935Z,-1.49
2023-01-23T04:43:11.421Z,-1.63
2023-01-23T04:44:11.124Z,-1.68
2023-01-23T04:45:11.117Z,-1.71
2023-01-23T04:46:11.578Z,-1.79
2023-01-23T04:47:11.332Z,-1.81
2023-01-23T04:48:11.055Z,-1.94
2023-01-23T04:49:11.281Z,-1.96
2023-01-23T04:50:11.306Z,-1.96
2023-01-23T04:51:11.429Z,-1.99
2023-01-23T04:52:11.225Z,-2.05
2023-01-23T04:53:11.220Z,-2.12
2023-01-23T04:54:11.555Z,-2.25
2023-01-23T04:55:10.906Z,-2.25
2023-01-23T04:56:10.881Z,-2.25
2023-01-23T04:57:11.117Z,-2.36
2023-01-23T04:58:10.585Z,-2.44
2023-01-23T04:59:10.563Z,-2.39
2023-01-23T05:00:10.542Z,-2.43
2023-01-23T05:01:11.005Z,-2.49
2023-01-23T05:02:10.975Z,-2.67
2023-01-23T05:03:10.992Z,-2.62
2023-01-23T05:04:10.737Z,-2.62
2023-01-23T05:05:10.968Z,-2.75
2023-01-23T05:06:11.127Z,-2.82
2023-01-23T05:07:10.897Z,-2.81
2023-01-23T05:08:10.890Z,-2.86
2023-01-23T05:09:10.360Z,-2.82
2023-01-23T05:10:11.211Z,-2.9
2023-01-23T05:11:10.582Z,-2.93
2023-01-23T05:12:10.553Z,-2.93
2023-01-23T05:13:10.849Z,-3.01
2023-01-23T05:14:10.774Z,-2.96
2023-01-23T05:15:10.758Z,-3
2023-01-23T05:16:10.731Z,-2.9
2023-01-23T05:17:10.212Z,-2.93
2023-01-23T05:18:10.710Z,-2.86
2023-01-23T05:19:10.648Z,-2.85
2023-01-23T05:20:10.392Z,-2.81
2023-01-23T05:21:10.612Z,-2.82
2023-01-23T05:22:10.363Z,-2.81
2023-01-23T05:23:10.339Z,-2.79
2023-01-23T05:24:10.310Z,-2.85
2023-01-23T05:25:10.524Z,-2.73
2023-01-23T05:26:10.877Z,-2.79
2023-01-23T05:27:10.492Z,-2.79
2023-01-23T05:28:13.905Z,-2.75
2023-01-23T05:29:10.443Z,-2.73
2023-01-23T05:30:10.163Z,-2.76
2023-01-23T05:31:10.891Z,-2.76
2023-01-23T05:32:10.397Z,-2.61
2023-01-23T05:33:10.097Z,-2.65
2023-01-23T05:34:10.332Z,-2.54
2023-01-23T05:35:09.844Z,-2.58
2023-01-23T05:36:10.056Z,-2.61
2023-01-23T05:37:10.023Z,-2.6
2023-01-23T05:38:09.987Z,-2.54
2023-01-23T05:39:10.241Z,-2.53
2023-01-23T05:40:10.204Z,-2.53
2023-01-23T05:41:10.193Z,-2.53
2023-01-23T05:42:10.606Z,-2.6
2023-01-23T05:43:09.896Z,-2.54
2023-01-23T05:44:09.880Z,-2.58
2023-01-23T05:45:09.852Z,-2.58
2023-01-23T05:46:10.278Z,-2.68
2023-01-23T05:47:10.218Z,-2.78
2023-01-23T05:48:10.462Z,-2.73
2023-01-23T05:49:10.210Z,-2.75
2023-01-23T05:50:10.425Z,-2.73
2023-01-23T05:51:10.312Z,-2.72
2023-01-23T05:52:10.390Z,-2.68
2023-01-23T05:53:10.378Z,-2.76
2023-01-23T05:54:10.340Z,-2.76
2023-01-23T05:55:10.317Z,-2.68
2023-01-23T05:56:10.280Z,-2.57
2023-01-23T05:57:10.014Z,-2.61
2023-01-23T05:58:10.649Z,-2.44
2023-01-23T05:59:10.091Z,-2.49
2023-01-23T06:00:10.213Z,-2.43
2023-01-23T06:01:09.992Z,-2.55
2023-01-23T06:02:09.909Z,-2.37
2023-01-23T06:03:10.151Z,-2.34
2023-01-23T06:04:09.875Z,-2.36
2023-01-23T06:05:10.090Z,-2.24
2023-01-23T06:06:10.073Z,-2.24
2023-01-23T06:07:10.065Z,-2.21
2023-01-23T06:08:10.054Z,-2.14
2023-01-23T06:09:10.017Z,-2.2
2023-01-23T06:10:12.262Z,-2.07
2023-01-23T06:11:09.978Z,-1.97
2023-01-23T06:12:09.754Z,-1.82
2023-01-23T06:13:09.922Z,-1.78
2023-01-23T06:14:10.275Z,-1.84
2023-01-23T06:15:09.887Z,-1.71
2023-01-23T06:16:12.969Z,-1.64
2023-01-23T06:17:09.588Z,-1.71
2023-01-23T06:18:10.051Z,-1.53
2023-01-23T06:19:09.291Z,-1.63
2023-01-23T06:20:09.778Z,-1.56
2023-01-23T06:21:09.507Z,-1.6
2023-01-23T06:22:09.731Z,-1.55
2023-01-23T06:23:09.453Z,-1.46
2023-01-23T06:24:09.704Z,-1.46
2023-01-23T06:25:10.221Z,-1.5
2023-01-23T06:26:09.676Z,-1.4
2023-01-23T06:27:10.151Z,-1.43
2023-01-23T06:28:09.893Z,-1.38
2023-01-23T06:29:10.115Z,-1.37
2023-01-23T06:30:10.490Z,-1.27
2023-01-23T06:31:10.479Z,-1.25
2023-01-23T06:32:10.069Z,-1.28
2023-01-23T06:33:09.779Z,-1.24
2023-01-23T06:34:10.011Z,-1.14
2023-01-23T06:35:09.985Z,-1.21
2023-01-23T06:36:09.791Z,-1.19
2023-01-23T06:37:09.699Z,-1.1
2023-01-23T06:38:09.927Z,-1.07
2023-01-23T06:39:09.908Z,-1.1
2023-01-23T06:40:09.633Z,-1.06
2023-01-23T06:41:09.880Z,-1.04
2023-01-23T06:42:09.592Z,-0.93
2023-01-23T06:43:09.825Z,-0.93
2023-01-23T06:44:09.551Z,-0.99
2023-01-23T06:45:09.781Z,-0.99
2023-01-23T06:46:10.521Z,-0.96
2023-01-23T06:47:09.488Z,-0.98
2023-01-23T06:48:09.462Z,-0.87
2023-01-23T06:49:10.931Z,-0.87
2023-01-23T06:50:10.637Z,-0.84
2023-01-23T06:51:10.583Z,-0.84
2023-01-23T06:52:10.340Z,-0.82
2023-01-23T06:53:10.564Z,-0.89
2023-01-23T06:54:10.292Z,-0.85
2023-01-23T06:55:10.271Z,-0.8
2023-01-23T06:56:10.271Z,-0.84
2023-01-23T06:57:10.485Z,-0.79
2023-01-23T06:58:10.467Z,-0.84
2023-01-23T06:59:10.479Z,-0.87
2023-01-23T07:00:10.484Z,-0.79
2023-01-23T07:01:10.438Z,-0.74
2023-01-23T07:02:11.064Z,-0.77
2023-01-23T07:03:10.602Z,-0.66
2023-01-23T07:04:10.125Z,-0.62
2023-01-23T07:05:10.371Z,-0.66
2023-01-23T07:06:10.347Z,-0.67
2023-01-23T07:07:10.595Z,-0.7
2023-01-23T07:08:10.561Z,-0.66
2023-01-23T07:09:10.560Z,-0.7
2023-01-23T07:10:10.265Z,-0.64
2023-01-23T07:11:10.270Z,-0.64
2023-01-23T07:12:10.526Z,-0.67
2023-01-23T07:13:10.205Z,-0.73
2023-01-23T07:14:10.468Z,-0.72
2023-01-23T07:15:10.429Z,-0.55
2023-01-23T07:16:10.417Z,-0.56
2023-01-23T07:17:10.382Z,-0.55
2023-01-23T07:18:10.783Z,-0.51
2023-01-23T07:19:10.110Z,-0.49
2023-01-23T07:20:10.106Z,-0.51
2023-01-23T07:21:10.297Z,-0.51
2023-01-23T07:22:10.278Z,-0.49
2023-01-23T07:23:10.285Z,-0.45
2023-01-23T07:24:10.272Z,-0.45
2023-01-23T07:25:09.961Z,-0.38
2023-01-23T07:26:10.188Z,-0.4
2023-01-23T07:27:09.910Z,-0.37
2023-01-23T07:28:10.153Z,-0.38
2023-01-23T07:29:09.881Z,-0.36
2023-01-23T07:30:10.135Z,-0.33
2023-01-23T07:31:10.407Z,-0.31
2023-01-23T07:32:13.238Z,-0.27
2023-01-23T07:33:09.815Z,-0.3
2023-01-23T07:34:10.404Z,-0.28
2023-01-23T07:35:10.024Z,-0.19
2023-01-23T07:36:09.738Z,-0.25
2023-01-23T07:37:10.013Z,-0.16
2023-01-23T07:38:09.691Z,-0.13
2023-01-23T07:39:09.938Z,-0.09
2023-01-23T07:40:09.924Z,-0.04
2023-01-23T07:41:09.898Z,0.01
2023-01-23T07:42:09.882Z,0.01
2023-01-23T07:43:09.880Z,0.06
2023-01-23T07:44:09.605Z,0.08
2023-01-23T07:45:09.550Z,0.16
2023-01-23T07:46:09.668Z,0.16
2023-01-23T07:47:09.534Z,0.14
2023-01-23T07:48:09.501Z,0.09
2023-01-23T07:49:09.763Z,0.16
2023-01-23T07:50:10.252Z,0.14
2023-01-23T07:51:09.919Z,0.21
2023-01-23T07:52:09.568Z,0.31
2023-01-23T07:53:09.821Z,0.32
2023-01-23T07:54:09.796Z,0.37
2023-01-23T07:55:09.509Z,0.45
2023-01-23T07:56:09.483Z,0.35
2023-01-23T07:57:09.722Z,0.48
2023-01-23T07:58:09.716Z,0.44
2023-01-23T07:59:09.708Z,0.48
2023-01-23T08:00:09.412Z,0.53
2023-01-23T08:01:09.815Z,0.57
2023-01-23T08:02:09.387Z,0.53
2023-01-23T08:03:09.603Z,0.39
2023-01-23T08:04:09.589Z,0.44
2023-01-23T08:05:09.564Z,0.41
2023-01-23T08:06:09.912Z,0.41
2023-01-23T08:07:09.037Z,0.41
2023-01-23T08:08:17.916Z,0.41
2023-01-23T08:09:09.251Z,0.41
2023-01-23T08:10:09.244Z,0.38
2023-01-23T08:11:09.442Z,0.52
2023-01-23T08:12:09.440Z,0.44
2023-01-23T08:13:08.901Z,0.44
2023-01-23T08:14:09.180Z,0.44
2023-01-23T08:15:09.116Z,0.44
2023-01-23T08:16:11.413Z,0.41
2023-01-23T08:17:09.422Z,0.39
2023-01-23T08:18:09.364Z,0.38
2023-01-23T08:19:09.307Z,0.47
2023-01-23T08:20:09.336Z,0.38
2023-01-23T08:21:09.261Z,0.45
2023-01-23T08:22:09.590Z,0.53
2023-01-23T08:23:08.983Z,0.57
2023-01-23T08:24:08.935Z,0.6
2023-01-23T08:25:08.923Z,0.53
2023-01-23T08:26:08.967Z,0.5
2023-01-23T08:27:09.752Z,0.48
2023-01-23T08:28:09.152Z,0.5
2023-01-23T08:29:08.836Z,0.42
2023-01-23T08:30:08.867Z,0.39
2023-01-23T08:31:11.479Z,0.41
2023-01-23T08:32:09.209Z,0.47
2023-01-23T08:33:09.060Z,0.44
2023-01-23T08:34:09.024Z,0.48
2023-01-23T08:35:08.992Z,0.52
2023-01-23T08:36:11.225Z,0.52
2023-01-23T08:37:08.968Z,0.61
2023-01-23T08:38:09.362Z,0.52
2023-01-23T08:39:08.893Z,0.66
2023-01-23T08:40:08.932Z,0.64
2023-01-23T08:41:08.942Z,0.66
2023-01-23T08:42:08.366Z,0.66
2023-01-23T08:43:08.556Z,0.58
2023-01-23T08:44:08.533Z,0.52
2023-01-23T08:45:08.517Z,0.56
2023-01-23T08:46:08.650Z,0.5
2023-01-23T08:47:08.750Z,0.52
2023-01-23T08:48:08.809Z,0.53
2023-01-23T08:49:10.391Z,0.52
2023-01-23T08:50:08.147Z,0.66
2023-01-23T08:51:08.815Z,0.64
2023-01-23T08:52:08.671Z,0.76
2023-01-23T08:53:08.367Z,0.78
2023-01-23T08:54:08.955Z,0.69
2023-01-23T08:55:08.365Z,0.78
2023-01-23T08:56:08.313Z,0.79
2023-01-23T08:57:08.564Z,0.69
2023-01-23T08:58:08.526Z,0.79
2023-01-23T08:59:08.280Z,0.76
2023-01-23T09:00:08.475Z,0.85
2023-01-23T09:01:08.721Z,0.86
2023-01-23T09:02:08.357Z,0.81
2023-01-23T09:03:10.561Z,0.81
2023-01-23T09:04:08.196Z,0.81
2023-01-23T09:05:08.123Z,0.79
2023-01-23T09:06:08.396Z,0.89
2023-01-23T09:07:07.839Z,0.89
2023-01-23T09:08:08.067Z,0.94
2023-01-23T09:09:08.048Z,0.94
2023-01-23T09:10:08.550Z,1.02
2023-01-23T09:11:08.262Z,0.97
2023-01-23T09:12:08.285Z,0.92
2023-01-23T09:13:08.234Z,0.92
2023-01-23T09:14:07.945Z,0.79
2023-01-23T09:15:08.182Z,0.85
2023-01-23T09:16:08.240Z,0.82
2023-01-23T09:17:08.147Z,0.89
2023-01-23T09:18:08.139Z,0.86
2023-01-23T09:19:08.111Z,0.84
2023-01-23T09:20:07.830Z,0.84
2023-01-23T09:21:11.017Z,0.74
2023-01-23T09:22:07.803Z,0.78
2023-01-23T09:23:07.772Z,0.84
2023-01-23T09:24:08.024Z,0.85
2023-01-23T09:25:07.985Z,0.78
2023-01-23T09:26:08.320Z,0.84
2023-01-23T09:27:07.714Z,0.84
2023-01-23T09:28:07.937Z,0.82
2023-01-23T09:29:07.926Z,0.72
2023-01-23T09:30:07.884Z,0.72
2023-01-23T09:31:07.712Z,0.78
2023-01-23T09:32:07.752Z,0.82
2023-01-23T09:33:07.597Z,0.79
2023-01-23T09:34:07.299Z,0.9
2023-01-23T09:35:07.813Z,0.93
2023-01-23T09:36:07.537Z,0.92
2023-01-23T09:37:07.769Z,0.97
2023-01-23T09:38:07.519Z,1.14
2023-01-23T09:39:07.462Z,1.11
2023-01-23T09:40:07.452Z,1.15
2023-01-23T09:41:07.681Z,1.1
2023-01-23T09:42:10.793Z,1.12
2023-01-23T09:43:07.642Z,1.14
2023-01-23T09:44:07.385Z,1.15
2023-01-23T09:45:07.357Z,1.22
2023-01-23T09:46:07.602Z,1.26
2023-01-23T09:47:07.403Z,1.32
2023-01-23T09:48:07.532Z,1.36
2023-01-23T09:49:07.531Z,1.38
2023-01-23T09:50:07.560Z,1.47
2023-01-23T09:51:07.486Z,1.46
2023-01-23T09:52:07.460Z,1.54
2023-01-23T09:53:07.467Z,1.53
2023-01-23T09:54:07.183Z,1.53
2023-01-23T09:55:07.156Z,1.58
2023-01-23T09:56:07.392Z,1.56
2023-01-23T09:57:07.108Z,1.56
2023-01-23T09:58:07.712Z,1.74
2023-01-23T09:59:07.376Z,1.72
2023-01-23T10:00:07.047Z,1.84
2023-01-23T10:01:07.116Z,1.89
2023-01-23T10:02:07.161Z,1.86
2023-01-23T10:03:07.272Z,1.97
2023-01-23T10:04:07.347Z,1.98
2023-01-23T10:05:07.226Z,2.01
2023-01-23T10:06:06.931Z,1.98
2023-01-23T10:07:07.179Z,2.06
2023-01-23T10:08:06.914Z,2.08
2023-01-23T10:09:06.898Z,2.16
2023-01-23T10:10:09.401Z,2.29
2023-01-23T10:11:07.108Z,2.29
2023-01-23T10:12:07.086Z,2.3
2023-01-23T10:13:07.057Z,2.2
2023-01-23T10:14:07.809Z,2.15
2023-01-23T10:15:06.759Z,2.09
2023-01-23T10:16:06.755Z,2.16
2023-01-23T10:17:06.916Z,2.18
2023-01-23T10:18:06.467Z,2.12
2023-01-23T10:19:06.438Z,2.18
2023-01-23T10:20:06.958Z,2.22
2023-01-23T10:21:07.021Z,2.31
2023-01-23T10:22:06.667Z,2.29
2023-01-23T10:23:06.871Z,2.33
2023-01-23T10:24:06.621Z,2.34
2023-01-23T10:25:06.634Z,2.3
2023-01-23T10:26:06.821Z,2.29
2023-01-23T10:27:06.791Z,2.26
2023-01-23T10:28:06.770Z,2.31
2023-01-23T10:29:06.774Z,2.33
2023-01-23T10:30:07.176Z,2.33
2023-01-23T10:31:06.891Z,2.33
2023-01-23T10:32:06.712Z,2.34
2023-01-23T10:33:06.684Z,2.34
2023-01-23T10:34:10.056Z,2.36
2023-01-23T10:35:06.689Z,2.36
2023-01-23T10:36:06.396Z,2.27
2023-01-23T10:37:06.127Z,2.22
2023-01-23T10:38:06.497Z,2.2
2023-01-23T10:39:06.570Z,2.26
2023-01-23T10:40:06.040Z,2.15
2023-01-23T10:41:06.552Z,2.15
2023-01-23T10:42:07.801Z,2.16
2023-01-23T10:43:06.501Z,2.16
2023-01-23T10:44:06.486Z,2.13
2023-01-23T10:45:06.469Z,2.09
2023-01-23T10:46:06.987Z,2.08
2023-01-23T10:47:06.460Z,1.98
2023-01-23T10:48:09.228Z,1.84
2023-01-23T10:49:05.905Z,1.97
2023-01-23T10:50:06.366Z,1.84
2023-01-23T10:51:06.298Z,1.83
2023-01-23T10:52:06.132Z,1.86
2023-01-23T10:53:06.079Z,1.83
2023-01-23T10:54:12.996Z,1.82
2023-01-23T10:55:06.295Z,1.76
2023-01-23T10:56:06.264Z,1.75
2023-01-23T10:57:06.067Z,1.64
2023-01-23T10:58:05.723Z,1.68
2023-01-23T10:59:05.979Z,1.64
2023-01-23T11:00:06.232Z,1.57
2023-01-23T11:01:06.439Z,1.61
2023-01-23T11:02:06.824Z,1.61
2023-01-23T11:03:05.882Z,1.66
2023-01-23T11:04:05.592Z,1.68
2023-01-23T11:05:05.902Z,1.57
2023-01-23T11:06:06.105Z,1.6
2023-01-23T11:07:05.547Z,1.6
2023-01-23T11:08:05.806Z,1.56
2023-01-23T11:09:05.771Z,1.56
2023-01-23T11:10:05.736Z,1.53
2023-01-23T11:11:05.718Z,1.54
2023-01-23T11:12:05.962Z,1.47
2023-01-23T11:13:05.714Z,1.47
2023-01-23T11:14:05.928Z,1.44
2023-01-23T11:15:05.903Z,1.42
2023-01-23T11:16:05.826Z,1.47
2023-01-23T11:17:05.607Z,1.48
2023-01-23T11:18:06.292Z,1.44
2023-01-23T11:19:05.830Z,1.4
2023-01-23T11:20:05.547Z,1.47
2023-01-23T11:21:05.563Z,1.47
2023-01-23T11:22:05.755Z,1.61
2023-01-23T11:23:05.500Z,1.6
2023-01-23T11:24:07.707Z,1.66
2023-01-23T11:25:05.714Z,1.64
2023-01-23T11:26:05.443Z,1.61
2023-01-23T11:27:05.404Z,1.56
2023-01-23T11:28:05.398Z,1.76
2023-01-23T11:29:05.120Z,1.72
2023-01-23T11:30:05.834Z,1.75
2023-01-23T11:31:19.284Z,1.78
2023-01-23T11:32:06.248Z,1.76
2023-01-23T11:33:05.562Z,1.76
2023-01-23T11:34:06.002Z,1.74
2023-01-23T11:35:06.430Z,1.72
2023-01-23T11:36:05.242Z,1.71
2023-01-23T11:37:05.476Z,1.75
2023-01-23T11:38:05.215Z,1.69
2023-01-23T11:39:05.315Z,1.6
2023-01-23T11:40:05.429Z,1.58
2023-01-23T11:41:04.917Z,1.56
2023-01-23T11:42:05.408Z,1.44
2023-01-23T11:43:05.378Z,1.57
2023-01-23T11:44:07.835Z,1.39
2023-01-23T11:45:05.163Z,1.32
2023-01-23T11:46:06.019Z,1.3
2023-01-23T11:47:05.846Z,1.35
2023-01-23T11:48:05.826Z,1.32
2023-01-23T11:49:05.278Z,1.32
2023-01-23T11:50:06.185Z,1.22
2023-01-23T11:51:05.923Z,1.35
2023-01-23T11:52:05.498Z,1.21
2023-01-23T11:53:05.236Z,1.28
2023-01-23T11:54:05.803Z,1.17
2023-01-23T11:55:05.688Z,1.33
2023-01-23T11:56:05.677Z,1.42
2023-01-23T11:57:05.382Z,1.38
2023-01-23T11:58:05.364Z,1.48
2023-01-23T11:59:05.759Z,1.54
2023-01-23T12:00:05.574Z,1.51
2023-01-23T12:01:05.574Z,1.57
2023-01-23T12:02:09.484Z,1.48
2023-01-23T12:03:05.801Z,1.6
2023-01-23T12:04:05.777Z,1.65
2023-01-23T12:05:05.234Z,1.71
2023-01-23T12:06:23.884Z,1.76
2023-01-23T12:07:05.468Z,1.71
2023-01-23T12:08:05.189Z,1.74
2023-01-23T12:09:05.414Z,1.75
2023-01-23T12:10:05.411Z,1.75
2023-01-23T12:11:05.382Z,1.72
2023-01-23T12:12:05.438Z,1.78
2023-01-23T12:13:05.071Z,1.72
2023-01-23T12:14:05.485Z,1.71
2023-01-23T12:15:05.042Z,1.64
2023-01-23T12:16:05.418Z,1.56
2023-01-23T12:17:05.317Z,1.5
2023-01-23T12:18:04.704Z,1.56
2023-01-23T12:19:04.964Z,1.53
2023-01-23T12:20:04.990Z,1.56
2023-01-23T12:21:04.951Z,1.6
2023-01-23T12:22:05.585Z,1.54
2023-01-23T12:23:05.228Z,1.6
2023-01-23T12:24:04.868Z,1.54
2023-01-23T12:25:04.896Z,1.64
2023-01-23T12:26:04.829Z,1.65
2023-01-23T12:27:04.866Z,1.56
2023-01-23T12:28:04.819Z,1.61
2023-01-23T12:29:06.088Z,1.6
2023-01-23T12:30:05.053Z,1.65
2023-01-23T12:31:07.968Z,1.64
2023-01-23T12:32:05.085Z,1.57
2023-01-23T12:33:04.690Z,1.47
2023-01-23T12:34:04.677Z,1.48
2023-01-23T12:35:04.699Z,1.53
2023-01-23T12:36:04.937Z,1.56
2023-01-23T12:37:32.041Z,1.53
2023-01-23T12:38:04.979Z,1.46
2023-01-23T12:39:04.588Z,1.48
2023-01-23T12:40:06.051Z,1.4
2023-01-23T12:41:04.551Z,1.4
2023-01-23T12:42:04.532Z,1.5
2023-01-23T12:43:04.535Z,1.51
2023-01-23T12:44:04.755Z,1.51
2023-01-23T12:45:04.765Z,1.44
2023-01-23T12:46:04.528Z,1.39
2023-01-23T12:47:04.893Z,1.46
2023-01-23T12:48:05.652Z,1.5
2023-01-23T12:49:04.661Z,1.48
2023-01-23T12:50:04.399Z,1.44
2023-01-23T12:51:04.902Z,1.53
2023-01-23T12:52:04.723Z,1.44
2023-01-23T12:53:04.722Z,1.5
2023-01-23T12:54:04.708Z,1.51
2023-01-23T12:55:04.556Z,1.46
2023-01-23T12:56:04.667Z,1.42
2023-01-23T12:57:04.744Z,1.58
2023-01-23T12:58:13.210Z,1.65
2023-01-23T12:59:04.462Z,1.69
2023-01-23T13:00:04.261Z,1.74
2023-01-23T13:01:04.574Z,1.71
2023-01-23T13:02:04.105Z,1.92
2023-01-23T13:03:04.178Z,1.92
2023-01-23T13:04:04.379Z,1.92
2023-01-23T13:05:04.391Z,1.93
2023-01-23T13:06:04.383Z,1.83
2023-01-23T13:07:04.367Z,1.76
2023-01-23T13:08:04.039Z,1.75
2023-01-23T13:09:21.323Z,1.78
2023-01-23T13:10:04.358Z,1.66
2023-01-23T13:11:03.760Z,1.58
2023-01-23T13:12:04.229Z,1.74
2023-01-23T13:13:03.941Z,1.69
2023-01-23T13:14:05.731Z,1.76
2023-01-23T13:15:22.635Z,1.72
2023-01-23T13:16:03.884Z,1.69
2023-01-23T13:17:04.061Z,1.66
2023-01-23T13:18:03.962Z,1.66
2023-01-23T13:19:03.841Z,1.6
2023-01-23T13:20:03.813Z,1.61
2023-01-23T13:21:03.847Z,1.6